sensor_id;sensor_type;location;lat;lon;timestamp;temperature;humidity
21582;DHT22;10952;50.836;4.348;2023-04-25T00:00:14;10.50;99.90
21582;DHT22;10952;50.836;4.348;2023-04-25T00:02:43;10.60;99.90
21582;DHT22;10952;50.836;4.348;2023-04-25T00:05:12;10.50;99.90
21582;DHT22;10952;50.836;4.348;2023-04-25T00:07:40;10.60;99.90
21582;DHT22;10952;50.836;4.348;2023-04-25T00:10:10;10.50;99.90
21582;DHT22;10952;50.836;4.348;2023-04-25T00:12:40;10.60;99.90
21582;DHT22;10952;50.836;4.348;2023-04-25T00:15:07;10.70;99.90
21582;DHT22;10952;50.836;4.348;2023-04-25T00:17:36;10.60;99.90
21582;DHT22;10952;50.836;4.348;2023-04-25T00:20:07;10.60;99.90
21582;DHT22;10952;50.836;4.348;2023-04-25T00:22:36;10.60;99.90
21582;DHT22;10952;50.836;4.348;2023-04-25T00:25:06;10.60;99.90
21582;DHT22;10952;50.836;4.348;2023-04-25T00:27:35;10.60;99.90
21582;DHT22;10952;50.836;4.348;2023-04-25T00:30:04;10.50;99.90
21582;DHT22;10952;50.836;4.348;2023-04-25T00:32:33;10.50;99.90
21582;DHT22;10952;50.836;4.348;2023-04-25T00:35:02;10.40;99.90
21582;DHT22;10952;50.836;4.348;2023-04-25T00:37:28;10.30;99.90
21582;DHT22;10952;50.836;4.348;2023-04-25T00:40:00;10.30;99.90
21582;DHT22;10952;50.836;4.348;2023-04-25T00:42:27;10.40;99.90
21582;DHT22;10952;50.836;4.348;2023-04-25T00:44:56;10.40;99.90
21582;DHT22;10952;50.836;4.348;2023-04-25T00:47:26;10.20;99.90
21582;DHT22;10952;50.836;4.348;2023-04-25T00:49:56;10.20;99.90
21582;DHT22;10952;50.836;4.348;2023-04-25T00:52:25;10.10;99.90
21582;DHT22;10952;50.836;4.348;2023-04-25T00:54:53;10.30;99.90
21582;DHT22;10952;50.836;4.348;2023-04-25T00:57:19;10.30;99.90
21582;DHT22;10952;50.836;4.348;2023-04-25T00:59:48;10.10;99.90
21582;DHT22;10952;50.836;4.348;2023-04-25T01:02:19;10.00;99.90
21582;DHT22;10952;50.836;4.348;2023-04-25T01:04:49;10.10;99.90
21582;DHT22;10952;50.836;4.348;2023-04-25T01:07:17;10.00;99.90
21582;DHT22;10952;50.836;4.348;2023-04-25T01:09:45;10.00;99.90
21582;DHT22;10952;50.836;4.348;2023-04-25T01:12:14;10.10;99.90
21582;DHT22;10952;50.836;4.348;2023-04-25T01:14:43;10.30;99.90
21582;DHT22;10952;50.836;4.348;2023-04-25T01:17:10;10.40;99.90
21582;DHT22;10952;50.836;4.348;2023-04-25T01:19:39;10.40;99.90
21582;DHT22;10952;50.836;4.348;2023-04-25T01:22:08;10.30;99.90
21582;DHT22;10952;50.836;4.348;2023-04-25T01:24:37;10.30;99.90
21582;DHT22;10952;50.836;4.348;2023-04-25T01:27:06;10.30;99.90
21582;DHT22;10952;50.836;4.348;2023-04-25T01:29:36;10.20;99.90
21582;DHT22;10952;50.836;4.348;2023-04-25T01:32:06;10.20;99.90
21582;DHT22;10952;50.836;4.348;2023-04-25T01:34:32;10.00;99.90
21582;DHT22;10952;50.836;4.348;2023-04-25T01:37:01;9.90;99.90
21582;DHT22;10952;50.836;4.348;2023-04-25T01:39:30;9.90;99.90
21582;DHT22;10952;50.836;4.348;2023-04-25T01:41:59;9.90;99.90
21582;DHT22;10952;50.836;4.348;2023-04-25T01:44:28;10.00;99.90
21582;DHT22;10952;50.836;4.348;2023-04-25T01:46:57;9.80;99.90
21582;DHT22;10952;50.836;4.348;2023-04-25T01:49:26;9.80;99.90
21582;DHT22;10952;50.836;4.348;2023-04-25T01:51:55;9.70;99.90
21582;DHT22;10952;50.836;4.348;2023-04-25T01:54:26;9.60;99.90
21582;DHT22;10952;50.836;4.348;2023-04-25T01:56:57;9.60;99.90
21582;DHT22;10952;50.836;4.348;2023-04-25T01:59:26;9.60;99.90
21582;DHT22;10952;50.836;4.348;2023-04-25T02:01:57;9.70;99.90
21582;DHT22;10952;50.836;4.348;2023-04-25T02:04:26;9.70;99.90
21582;DHT22;10952;50.836;4.348;2023-04-25T02:06:55;9.70;99.90
21582;DHT22;10952;50.836;4.348;2023-04-25T02:09:24;9.70;99.90
21582;DHT22;10952;50.836;4.348;2023-04-25T02:11:53;9.60;99.90
21582;DHT22;10952;50.836;4.348;2023-04-25T02:14:21;9.60;99.90
21582;DHT22;10952;50.836;4.348;2023-04-25T02:16:48;9.60;99.90
21582;DHT22;10952;50.836;4.348;2023-04-25T02:19:14;9.70;99.90
21582;DHT22;10952;50.836;4.348;2023-04-25T02:21:40;9.50;99.90
21582;DHT22;10952;50.836;4.348;2023-04-25T02:24:17;9.50;99.90
21582;DHT22;10952;50.836;4.348;2023-04-25T02:26:43;9.50;99.90
21582;DHT22;10952;50.836;4.348;2023-04-25T02:29:12;9.70;99.90
21582;DHT22;10952;50.836;4.348;2023-04-25T02:31:43;9.70;99.90
21582;DHT22;10952;50.836;4.348;2023-04-25T02:34:12;9.80;99.90
21582;DHT22;10952;50.836;4.348;2023-04-25T02:36:38;9.70;99.90
21582;DHT22;10952;50.836;4.348;2023-04-25T02:39:10;9.60;99.90
21582;DHT22;10952;50.836;4.348;2023-04-25T02:41:39;9.60;99.90
21582;DHT22;10952;50.836;4.348;2023-04-25T02:44:08;9.60;99.90
21582;DHT22;10952;50.836;4.348;2023-04-25T02:46:40;9.60;99.90
21582;DHT22;10952;50.836;4.348;2023-04-25T02:49:09;9.70;99.90
21582;DHT22;10952;50.836;4.348;2023-04-25T02:51:38;9.80;99.90
21582;DHT22;10952;50.836;4.348;2023-04-25T02:54:04;9.80;99.90
21582;DHT22;10952;50.836;4.348;2023-04-25T02:56:34;9.80;99.90
21582;DHT22;10952;50.836;4.348;2023-04-25T02:59:03;9.80;99.90
21582;DHT22;10952;50.836;4.348;2023-04-25T03:01:32;9.90;99.90
21582;DHT22;10952;50.836;4.348;2023-04-25T03:04:01;9.80;99.90
21582;DHT22;10952;50.836;4.348;2023-04-25T03:06:28;9.80;99.90
21582;DHT22;10952;50.836;4.348;2023-04-25T03:08:57;9.70;99.90
21582;DHT22;10952;50.836;4.348;2023-04-25T03:11:26;9.80;99.90
21582;DHT22;10952;50.836;4.348;2023-04-25T03:13:55;9.70;99.90
21582;DHT22;10952;50.836;4.348;2023-04-25T03:16:21;9.60;99.90
21582;DHT22;10952;50.836;4.348;2023-04-25T03:18:50;9.50;99.90
21582;DHT22;10952;50.836;4.348;2023-04-25T03:21:16;9.50;99.90
21582;DHT22;10952;50.836;4.348;2023-04-25T03:23:45;9.60;99.90
21582;DHT22;10952;50.836;4.348;2023-04-25T03:26:14;9.60;99.90
21582;DHT22;10952;50.836;4.348;2023-04-25T03:28:46;9.60;99.90
21582;DHT22;10952;50.836;4.348;2023-04-25T03:31:24;9.60;99.90
21582;DHT22;10952;50.836;4.348;2023-04-25T03:33:56;9.60;99.90
21582;DHT22;10952;50.836;4.348;2023-04-25T03:39:14;9.50;99.90
21582;DHT22;10952;50.836;4.348;2023-04-25T03:41:42;9.40;99.90
21582;DHT22;10952;50.836;4.348;2023-04-25T03:44:11;9.30;99.90
21582;DHT22;10952;50.836;4.348;2023-04-25T03:46:37;9.30;99.90
21582;DHT22;10952;50.836;4.348;2023-04-25T03:49:06;9.30;99.90
21582;DHT22;10952;50.836;4.348;2023-04-25T03:51:35;9.40;99.90
21582;DHT22;10952;50.836;4.348;2023-04-25T03:54:03;9.30;99.90
21582;DHT22;10952;50.836;4.348;2023-04-25T03:56:32;9.30;99.90
21582;DHT22;10952;50.836;4.348;2023-04-25T03:58:59;9.30;99.90
21582;DHT22;10952;50.836;4.348;2023-04-25T04:01:28;9.40;99.90
21582;DHT22;10952;50.836;4.348;2023-04-25T04:03:56;9.30;99.90
21582;DHT22;10952;50.836;4.348;2023-04-25T04:06:25;9.40;99.90
21582;DHT22;10952;50.836;4.348;2023-04-25T04:09:22;9.40;99.90
21582;DHT22;10952;50.836;4.348;2023-04-25T04:11:50;9.30;99.90
21582;DHT22;10952;50.836;4.348;2023-04-25T04:14:18;9.40;99.90
21582;DHT22;10952;50.836;4.348;2023-04-25T04:16:47;9.30;99.90
21582;DHT22;10952;50.836;4.348;2023-04-25T04:19:16;9.30;99.90
21582;DHT22;10952;50.836;4.348;2023-04-25T04:21:44;9.40;99.90
21582;DHT22;10952;50.836;4.348;2023-04-25T04:24:13;9.40;99.90
21582;DHT22;10952;50.836;4.348;2023-04-25T04:26:46;9.50;99.90
21582;DHT22;10952;50.836;4.348;2023-04-25T04:29:15;9.60;99.90
21582;DHT22;10952;50.836;4.348;2023-04-25T04:31:50;9.50;99.90
21582;DHT22;10952;50.836;4.348;2023-04-25T04:34:16;9.50;99.90
21582;DHT22;10952;50.836;4.348;2023-04-25T04:36:47;9.50;99.90
21582;DHT22;10952;50.836;4.348;2023-04-25T04:39:16;9.50;99.90
21582;DHT22;10952;50.836;4.348;2023-04-25T04:41:43;9.30;99.90
21582;DHT22;10952;50.836;4.348;2023-04-25T04:44:09;9.30;99.90
21582;DHT22;10952;50.836;4.348;2023-04-25T04:46:39;9.30;99.90
21582;DHT22;10952;50.836;4.348;2023-04-25T04:49:09;9.40;99.90
21582;DHT22;10952;50.836;4.348;2023-04-25T04:51:38;9.20;99.90
21582;DHT22;10952;50.836;4.348;2023-04-25T04:54:05;9.30;99.90
21582;DHT22;10952;50.836;4.348;2023-04-25T04:56:33;9.30;99.90
21582;DHT22;10952;50.836;4.348;2023-04-25T04:59:02;9.20;99.90
21582;DHT22;10952;50.836;4.348;2023-04-25T05:01:30;9.20;99.90
21582;DHT22;10952;50.836;4.348;2023-04-25T05:03:59;9.20;99.90
21582;DHT22;10952;50.836;4.348;2023-04-25T05:06:29;9.10;99.90
21582;DHT22;10952;50.836;4.348;2023-04-25T05:08:59;9.10;99.90
21582;DHT22;10952;50.836;4.348;2023-04-25T05:11:25;9.20;99.90
21582;DHT22;10952;50.836;4.348;2023-04-25T05:13:54;9.20;99.90
21582;DHT22;10952;50.836;4.348;2023-04-25T05:16:23;9.20;99.90
21582;DHT22;10952;50.836;4.348;2023-04-25T05:18:49;9.10;99.90
21582;DHT22;10952;50.836;4.348;2023-04-25T05:21:17;9.20;99.90
21582;DHT22;10952;50.836;4.348;2023-04-25T05:23:45;9.20;99.90
21582;DHT22;10952;50.836;4.348;2023-04-25T05:26:14;9.20;99.90
21582;DHT22;10952;50.836;4.348;2023-04-25T05:28:42;9.20;99.90
21582;DHT22;10952;50.836;4.348;2023-04-25T05:31:11;9.20;99.90
21582;DHT22;10952;50.836;4.348;2023-04-25T05:33:43;9.20;99.90
21582;DHT22;10952;50.836;4.348;2023-04-25T05:36:10;9.10;99.90
21582;DHT22;10952;50.836;4.348;2023-04-25T05:38:38;9.20;99.90
21582;DHT22;10952;50.836;4.348;2023-04-25T05:41:06;9.30;99.90
21582;DHT22;10952;50.836;4.348;2023-04-25T05:43:33;9.30;99.90
21582;DHT22;10952;50.836;4.348;2023-04-25T05:46:02;9.20;99.90
21582;DHT22;10952;50.836;4.348;2023-04-25T05:48:31;9.10;99.90
21582;DHT22;10952;50.836;4.348;2023-04-25T05:51:00;9.10;99.90
21582;DHT22;10952;50.836;4.348;2023-04-25T05:53:25;9.30;99.90
21582;DHT22;10952;50.836;4.348;2023-04-25T05:55:54;9.40;99.90
21582;DHT22;10952;50.836;4.348;2023-04-25T05:58:23;9.60;99.90
21582;DHT22;10952;50.836;4.348;2023-04-25T06:01:03;9.70;99.90
21582;DHT22;10952;50.836;4.348;2023-04-25T06:03:32;9.90;99.90
21582;DHT22;10952;50.836;4.348;2023-04-25T06:06:01;10.00;99.90
21582;DHT22;10952;50.836;4.348;2023-04-25T06:08:32;9.90;99.90
21582;DHT22;10952;50.836;4.348;2023-04-25T06:11:00;9.80;99.90
21582;DHT22;10952;50.836;4.348;2023-04-25T06:13:29;9.90;99.90
21582;DHT22;10952;50.836;4.348;2023-04-25T06:15:57;9.90;99.90
21582;DHT22;10952;50.836;4.348;2023-04-25T06:18:22;9.90;99.90
21582;DHT22;10952;50.836;4.348;2023-04-25T06:20:48;10.10;99.90
21582;DHT22;10952;50.836;4.348;2023-04-25T06:23:14;10.20;99.90
21582;DHT22;10952;50.836;4.348;2023-04-25T06:25:42;10.20;99.90
21582;DHT22;10952;50.836;4.348;2023-04-25T06:28:09;10.20;99.90
21582;DHT22;10952;50.836;4.348;2023-04-25T06:30:38;10.20;99.90
21582;DHT22;10952;50.836;4.348;2023-04-25T06:33:05;9.80;99.90
21582;DHT22;10952;50.836;4.348;2023-04-25T06:35:34;9.60;99.90
21582;DHT22;10952;50.836;4.348;2023-04-25T06:38:03;9.40;99.90
21582;DHT22;10952;50.836;4.348;2023-04-25T06:40:35;9.30;99.90
21582;DHT22;10952;50.836;4.348;2023-04-25T06:43:01;9.40;99.90
21582;DHT22;10952;50.836;4.348;2023-04-25T06:45:37;9.50;99.90
21582;DHT22;10952;50.836;4.348;2023-04-25T06:48:04;9.50;99.90
21582;DHT22;10952;50.836;4.348;2023-04-25T06:50:33;9.60;99.90
21582;DHT22;10952;50.836;4.348;2023-04-25T06:53:02;9.50;99.90
21582;DHT22;10952;50.836;4.348;2023-04-25T06:55:28;9.50;99.90
21582;DHT22;10952;50.836;4.348;2023-04-25T06:57:54;9.50;99.90
21582;DHT22;10952;50.836;4.348;2023-04-25T07:00:37;9.50;99.90
21582;DHT22;10952;50.836;4.348;2023-04-25T07:03:05;9.60;99.90
21582;DHT22;10952;50.836;4.348;2023-04-25T07:05:34;9.80;99.90
21582;DHT22;10952;50.836;4.348;2023-04-25T07:08:02;9.80;99.90
21582;DHT22;10952;50.836;4.348;2023-04-25T07:10:30;10.00;99.90
21582;DHT22;10952;50.836;4.348;2023-04-25T07:12:56;10.20;99.90
21582;DHT22;10952;50.836;4.348;2023-04-25T07:15:24;10.20;99.90
21582;DHT22;10952;50.836;4.348;2023-04-25T07:17:53;10.20;99.90
21582;DHT22;10952;50.836;4.348;2023-04-25T07:20:19;10.00;99.90
21582;DHT22;10952;50.836;4.348;2023-04-25T07:22:45;10.10;99.90
21582;DHT22;10952;50.836;4.348;2023-04-25T07:25:11;10.10;99.90
21582;DHT22;10952;50.836;4.348;2023-04-25T07:27:44;10.30;99.90
21582;DHT22;10952;50.836;4.348;2023-04-25T07:30:11;10.40;99.90
21582;DHT22;10952;50.836;4.348;2023-04-25T07:32:40;10.50;99.90
21582;DHT22;10952;50.836;4.348;2023-04-25T07:35:06;10.30;99.90
21582;DHT22;10952;50.836;4.348;2023-04-25T07:37:33;10.30;99.90
21582;DHT22;10952;50.836;4.348;2023-04-25T07:39:59;10.50;99.90
21582;DHT22;10952;50.836;4.348;2023-04-25T07:42:25;10.50;99.90
21582;DHT22;10952;50.836;4.348;2023-04-25T07:44:50;10.50;99.90
21582;DHT22;10952;50.836;4.348;2023-04-25T07:47:17;10.30;99.90
21582;DHT22;10952;50.836;4.348;2023-04-25T07:49:44;10.10;99.90
21582;DHT22;10952;50.836;4.348;2023-04-25T07:52:10;10.10;99.90
21582;DHT22;10952;50.836;4.348;2023-04-25T07:54:36;10.10;99.90
21582;DHT22;10952;50.836;4.348;2023-04-25T07:57:02;10.10;99.90
21582;DHT22;10952;50.836;4.348;2023-04-25T07:59:28;10.10;99.90
21582;DHT22;10952;50.836;4.348;2023-04-25T08:01:53;10.20;99.90
21582;DHT22;10952;50.836;4.348;2023-04-25T08:04:19;10.20;99.90
21582;DHT22;10952;50.836;4.348;2023-04-25T08:06:45;10.30;99.90
21582;DHT22;10952;50.836;4.348;2023-04-25T08:09:10;10.40;99.90
21582;DHT22;10952;50.836;4.348;2023-04-25T08:11:36;10.60;99.90
21582;DHT22;10952;50.836;4.348;2023-04-25T08:14:02;10.80;99.90
21582;DHT22;10952;50.836;4.348;2023-04-25T08:16:28;11.00;99.90
21582;DHT22;10952;50.836;4.348;2023-04-25T08:18:53;11.20;99.90
21582;DHT22;10952;50.836;4.348;2023-04-25T08:21:19;11.30;99.90
21582;DHT22;10952;50.836;4.348;2023-04-25T08:23:45;11.40;99.90
21582;DHT22;10952;50.836;4.348;2023-04-25T08:26:11;11.40;99.90
21582;DHT22;10952;50.836;4.348;2023-04-25T08:28:37;11.40;99.90
21582;DHT22;10952;50.836;4.348;2023-04-25T08:31:03;11.70;99.90
21582;DHT22;10952;50.836;4.348;2023-04-25T08:33:29;12.00;99.90
21582;DHT22;10952;50.836;4.348;2023-04-25T08:35:55;12.00;99.90
21582;DHT22;10952;50.836;4.348;2023-04-25T08:38:21;11.80;99.90
21582;DHT22;10952;50.836;4.348;2023-04-25T08:40:49;11.50;99.90
21582;DHT22;10952;50.836;4.348;2023-04-25T08:43:18;11.60;99.90
21582;DHT22;10952;50.836;4.348;2023-04-25T08:45:45;11.40;99.90
21582;DHT22;10952;50.836;4.348;2023-04-25T08:48:16;11.10;99.90
21582;DHT22;10952;50.836;4.348;2023-04-25T08:50:53;11.00;99.90
21582;DHT22;10952;50.836;4.348;2023-04-25T08:53:27;11.00;99.90
21582;DHT22;10952;50.836;4.348;2023-04-25T08:55:55;11.10;99.90
21582;DHT22;10952;50.836;4.348;2023-04-25T08:58:21;11.30;99.90
21582;DHT22;10952;50.836;4.348;2023-04-25T09:00:48;11.70;99.90
21582;DHT22;10952;50.836;4.348;2023-04-25T09:03:14;12.20;99.90
21582;DHT22;10952;50.836;4.348;2023-04-25T09:05:41;12.40;99.90
21582;DHT22;10952;50.836;4.348;2023-04-25T09:08:07;12.50;99.90
21582;DHT22;10952;50.836;4.348;2023-04-25T09:10:33;12.20;99.90
21582;DHT22;10952;50.836;4.348;2023-04-25T09:15:29;11.60;99.90
21582;DHT22;10952;50.836;4.348;2023-04-25T09:18:01;11.60;99.90
21582;DHT22;10952;50.836;4.348;2023-04-25T09:20:28;11.70;99.90
21582;DHT22;10952;50.836;4.348;2023-04-25T09:23:04;12.00;99.90
21582;DHT22;10952;50.836;4.348;2023-04-25T09:25:34;12.00;99.90
21582;DHT22;10952;50.836;4.348;2023-04-25T09:28:06;11.60;99.90
21582;DHT22;10952;50.836;4.348;2023-04-25T09:30:34;11.30;99.90
21582;DHT22;10952;50.836;4.348;2023-04-25T09:33:08;11.20;99.90
21582;DHT22;10952;50.836;4.348;2023-04-25T09:35:43;11.20;99.90
21582;DHT22;10952;50.836;4.348;2023-04-25T09:38:13;11.40;99.90
21582;DHT22;10952;50.836;4.348;2023-04-25T09:40:44;11.50;99.90
21582;DHT22;10952;50.836;4.348;2023-04-25T09:43:18;11.60;99.90
21582;DHT22;10952;50.836;4.348;2023-04-25T09:45:44;11.70;99.90
21582;DHT22;10952;50.836;4.348;2023-04-25T09:48:20;11.80;99.90
21582;DHT22;10952;50.836;4.348;2023-04-25T09:51:06;12.20;99.90
21582;DHT22;10952;50.836;4.348;2023-04-25T09:53:40;12.10;99.90
21582;DHT22;10952;50.836;4.348;2023-04-25T09:56:07;12.00;99.90
21582;DHT22;10952;50.836;4.348;2023-04-25T09:58:34;11.90;99.90
21582;DHT22;10952;50.836;4.348;2023-04-25T10:01:06;12.10;99.90
21582;DHT22;10952;50.836;4.348;2023-04-25T10:03:34;12.30;99.90
21582;DHT22;10952;50.836;4.348;2023-04-25T10:06:05;12.20;99.90
21582;DHT22;10952;50.836;4.348;2023-04-25T10:08:34;12.30;99.90
21582;DHT22;10952;50.836;4.348;2023-04-25T10:11:02;12.70;99.90
21582;DHT22;10952;50.836;4.348;2023-04-25T10:13:29;13.30;99.90
21582;DHT22;10952;50.836;4.348;2023-04-25T10:15:58;13.30;99.90
21582;DHT22;10952;50.836;4.348;2023-04-25T10:18:28;13.10;99.90
21582;DHT22;10952;50.836;4.348;2023-04-25T10:21:00;13.00;99.90
21582;DHT22;10952;50.836;4.348;2023-04-25T10:23:26;13.50;99.90
21582;DHT22;10952;50.836;4.348;2023-04-25T10:25:53;15.10;99.90
21582;DHT22;10952;50.836;4.348;2023-04-25T10:28:19;17.20;99.90
21582;DHT22;10952;50.836;4.348;2023-04-25T10:33:40;20.40;92.70
21582;DHT22;10952;50.836;4.348;2023-04-25T10:36:12;21.40;89.80
21582;DHT22;10952;50.836;4.348;2023-04-25T10:38:39;22.10;87.10
21582;DHT22;10952;50.836;4.348;2023-04-25T10:41:06;22.50;82.10
21582;DHT22;10952;50.836;4.348;2023-04-25T10:43:36;22.80;81.70
21582;DHT22;10952;50.836;4.348;2023-04-25T10:48:50;20.30;83.10
21582;DHT22;10952;50.836;4.348;2023-04-25T10:51:24;19.20;82.70
21582;DHT22;10952;50.836;4.348;2023-04-25T10:56:41;16.80;90.20
21582;DHT22;10952;50.836;4.348;2023-04-25T10:59:12;15.90;92.00
21582;DHT22;10952;50.836;4.348;2023-04-25T11:04:03;14.00;96.80
21582;DHT22;10952;50.836;4.348;2023-04-25T11:09:27;12.50;99.90
21582;DHT22;10952;50.836;4.348;2023-04-25T11:11:57;12.10;99.90
21582;DHT22;10952;50.836;4.348;2023-04-25T11:14:24;11.80;99.90
21582;DHT22;10952;50.836;4.348;2023-04-25T11:16:57;11.70;99.90
21582;DHT22;10952;50.836;4.348;2023-04-25T11:19:24;11.60;99.90
21582;DHT22;10952;50.836;4.348;2023-04-25T11:21:50;11.70;99.90
21582;DHT22;10952;50.836;4.348;2023-04-25T11:24:18;11.80;99.90
21582;DHT22;10952;50.836;4.348;2023-04-25T11:26:46;12.30;99.90
21582;DHT22;10952;50.836;4.348;2023-04-25T11:29:15;12.60;99.90
21582;DHT22;10952;50.836;4.348;2023-04-25T11:31:44;12.70;99.90
21582;DHT22;10952;50.836;4.348;2023-04-25T11:34:11;12.90;99.90
21582;DHT22;10952;50.836;4.348;2023-04-25T11:36:38;13.10;99.90
21582;DHT22;10952;50.836;4.348;2023-04-25T11:39:04;12.80;99.90
21582;DHT22;10952;50.836;4.348;2023-04-25T11:41:31;12.90;99.90
21582;DHT22;10952;50.836;4.348;2023-04-25T11:43:57;12.80;99.90
21582;DHT22;10952;50.836;4.348;2023-04-25T11:46:22;12.70;99.90
21582;DHT22;10952;50.836;4.348;2023-04-25T11:48:48;12.90;99.90
21582;DHT22;10952;50.836;4.348;2023-04-25T11:51:16;13.20;99.90
21582;DHT22;10952;50.836;4.348;2023-04-25T11:53:44;13.30;99.90
21582;DHT22;10952;50.836;4.348;2023-04-25T11:56:11;13.70;99.90
21582;DHT22;10952;50.836;4.348;2023-04-25T11:58:56;14.60;99.90
21582;DHT22;10952;50.836;4.348;2023-04-25T12:01:30;15.70;99.90
21582;DHT22;10952;50.836;4.348;2023-04-25T12:03:56;16.40;99.60
21582;DHT22;10952;50.836;4.348;2023-04-25T12:06:27;16.90;98.10
21582;DHT22;10952;50.836;4.348;2023-04-25T12:09:03;18.50;95.40
21582;DHT22;10952;50.836;4.348;2023-04-25T12:11:32;18.60;93.50
21582;DHT22;10952;50.836;4.348;2023-04-25T12:14:04;17.80;94.80
21582;DHT22;10952;50.836;4.348;2023-04-25T12:16:40;17.00;95.00
21582;DHT22;10952;50.836;4.348;2023-04-25T12:19:06;16.40;96.30
21582;DHT22;10952;50.836;4.348;2023-04-25T12:21:33;16.20;96.70
21582;DHT22;10952;50.836;4.348;2023-04-25T12:24:22;16.70;97.20
21582;DHT22;10952;50.836;4.348;2023-04-25T12:26:53;16.60;97.00
21582;DHT22;10952;50.836;4.348;2023-04-25T12:29:21;16.00;97.90
21582;DHT22;10952;50.836;4.348;2023-04-25T12:31:47;15.10;97.10
21582;DHT22;10952;50.836;4.348;2023-04-25T12:34:13;14.30;97.10
21582;DHT22;10952;50.836;4.348;2023-04-25T12:36:39;14.10;97.90
21582;DHT22;10952;50.836;4.348;2023-04-25T12:39:04;14.00;97.80
21582;DHT22;10952;50.836;4.348;2023-04-25T12:41:30;13.90;97.30
21582;DHT22;10952;50.836;4.348;2023-04-25T12:43:56;13.70;96.50
21582;DHT22;10952;50.836;4.348;2023-04-25T12:46:23;13.90;96.50
21582;DHT22;10952;50.836;4.348;2023-04-25T12:48:49;14.50;95.70
21582;DHT22;10952;50.836;4.348;2023-04-25T12:51:15;15.40;95.00
21582;DHT22;10952;50.836;4.348;2023-04-25T12:53:41;15.20;95.90
21582;DHT22;10952;50.836;4.348;2023-04-25T12:56:07;15.20;96.80
21582;DHT22;10952;50.836;4.348;2023-04-25T12:58:33;15.20;97.00
21582;DHT22;10952;50.836;4.348;2023-04-25T13:00:59;15.20;97.10
21582;DHT22;10952;50.836;4.348;2023-04-25T13:03:25;14.90;96.80
21582;DHT22;10952;50.836;4.348;2023-04-25T13:05:51;14.50;97.30
21582;DHT22;10952;50.836;4.348;2023-04-25T13:08:18;14.80;98.30
21582;DHT22;10952;50.836;4.348;2023-04-25T13:10:44;14.60;98.60
21582;DHT22;10952;50.836;4.348;2023-04-25T13:13:11;14.80;98.70
21582;DHT22;10952;50.836;4.348;2023-04-25T13:15:36;14.50;98.00
21582;DHT22;10952;50.836;4.348;2023-04-25T13:18:05;14.00;98.60
21582;DHT22;10952;50.836;4.348;2023-04-25T13:20:31;14.00;98.90
21582;DHT22;10952;50.836;4.348;2023-04-25T13:22:57;14.10;98.10
21582;DHT22;10952;50.836;4.348;2023-04-25T13:25:22;14.00;98.50
21582;DHT22;10952;50.836;4.348;2023-04-25T13:27:48;13.90;99.10
21582;DHT22;10952;50.836;4.348;2023-04-25T13:30:14;13.90;98.30
21582;DHT22;10952;50.836;4.348;2023-04-25T13:32:41;13.80;97.70
21582;DHT22;10952;50.836;4.348;2023-04-25T13:35:12;13.40;96.90
21582;DHT22;10952;50.836;4.348;2023-04-25T13:37:39;13.20;97.60
21582;DHT22;10952;50.836;4.348;2023-04-25T13:40:08;13.50;97.00
21582;DHT22;10952;50.836;4.348;2023-04-25T13:42:36;13.70;96.20
21582;DHT22;10952;50.836;4.348;2023-04-25T13:45:02;13.80;97.00
21582;DHT22;10952;50.836;4.348;2023-04-25T13:47:28;14.10;96.50
21582;DHT22;10952;50.836;4.348;2023-04-25T13:49:54;14.40;95.80
21582;DHT22;10952;50.836;4.348;2023-04-25T13:52:20;14.30;95.20
21582;DHT22;10952;50.836;4.348;2023-04-25T13:54:45;14.10;95.70
21582;DHT22;10952;50.836;4.348;2023-04-25T13:57:11;14.10;96.00
21582;DHT22;10952;50.836;4.348;2023-04-25T13:59:37;14.10;97.90
21582;DHT22;10952;50.836;4.348;2023-04-25T14:02:04;13.70;99.30
21582;DHT22;10952;50.836;4.348;2023-04-25T14:04:30;13.60;99.90
21582;DHT22;10952;50.836;4.348;2023-04-25T14:06:56;13.40;99.90
21582;DHT22;10952;50.836;4.348;2023-04-25T14:09:22;13.40;99.90
21582;DHT22;10952;50.836;4.348;2023-04-25T14:11:51;13.30;99.50
21582;DHT22;10952;50.836;4.348;2023-04-25T14:14:18;13.20;99.90
21582;DHT22;10952;50.836;4.348;2023-04-25T14:16:44;13.50;99.40
21582;DHT22;10952;50.836;4.348;2023-04-25T14:19:10;13.50;99.40
21582;DHT22;10952;50.836;4.348;2023-04-25T14:21:35;13.50;97.60
21582;DHT22;10952;50.836;4.348;2023-04-25T14:24:01;13.20;97.30
21582;DHT22;10952;50.836;4.348;2023-04-25T14:26:27;13.10;98.30
21582;DHT22;10952;50.836;4.348;2023-04-25T14:28:53;13.10;99.00
21582;DHT22;10952;50.836;4.348;2023-04-25T14:31:18;13.30;98.90
21582;DHT22;10952;50.836;4.348;2023-04-25T14:33:44;13.60;97.80
21582;DHT22;10952;50.836;4.348;2023-04-25T14:36:10;13.80;96.70
21582;DHT22;10952;50.836;4.348;2023-04-25T14:38:36;13.90;96.30
21582;DHT22;10952;50.836;4.348;2023-04-25T14:41:02;13.90;96.50
21582;DHT22;10952;50.836;4.348;2023-04-25T14:43:28;13.70;96.20
21582;DHT22;10952;50.836;4.348;2023-04-25T14:45:54;13.60;97.30
21582;DHT22;10952;50.836;4.348;2023-04-25T14:48:19;13.50;98.10
21582;DHT22;10952;50.836;4.348;2023-04-25T14:50:46;13.70;97.40
21582;DHT22;10952;50.836;4.348;2023-04-25T14:53:13;14.00;98.30
21582;DHT22;10952;50.836;4.348;2023-04-25T14:55:39;13.90;97.90
21582;DHT22;10952;50.836;4.348;2023-04-25T14:58:05;13.70;99.10
21582;DHT22;10952;50.836;4.348;2023-04-25T15:00:32;13.60;98.70
21582;DHT22;10952;50.836;4.348;2023-04-25T15:02:58;13.50;98.60
21582;DHT22;10952;50.836;4.348;2023-04-25T15:05:24;13.40;98.60
21582;DHT22;10952;50.836;4.348;2023-04-25T15:07:50;13.20;98.60
21582;DHT22;10952;50.836;4.348;2023-04-25T15:10:18;12.60;98.40
21582;DHT22;10952;50.836;4.348;2023-04-25T15:12:45;12.40;98.00
21582;DHT22;10952;50.836;4.348;2023-04-25T15:15:12;12.10;99.90
21582;DHT22;10952;50.836;4.348;2023-04-25T15:17:41;12.10;99.90
21582;DHT22;10952;50.836;4.348;2023-04-25T15:20:08;12.30;99.90
21582;DHT22;10952;50.836;4.348;2023-04-25T15:22:43;12.50;99.90
21582;DHT22;10952;50.836;4.348;2023-04-25T15:25:10;13.00;99.70
21582;DHT22;10952;50.836;4.348;2023-04-25T15:27:37;13.30;98.90
21582;DHT22;10952;50.836;4.348;2023-04-25T15:30:06;13.30;98.30
21582;DHT22;10952;50.836;4.348;2023-04-25T15:32:33;13.20;98.20
21582;DHT22;10952;50.836;4.348;2023-04-25T15:35:03;13.30;98.10
21582;DHT22;10952;50.836;4.348;2023-04-25T15:37:30;13.50;98.00
21582;DHT22;10952;50.836;4.348;2023-04-25T15:40:06;14.20;97.20
21582;DHT22;10952;50.836;4.348;2023-04-25T15:42:37;14.60;96.00
21582;DHT22;10952;50.836;4.348;2023-04-25T15:45:07;14.80;96.30
21582;DHT22;10952;50.836;4.348;2023-04-25T15:47:34;15.20;94.80
21582;DHT22;10952;50.836;4.348;2023-04-25T15:50:00;14.80;95.70
21582;DHT22;10952;50.836;4.348;2023-04-25T15:52:26;14.20;97.30
21582;DHT22;10952;50.836;4.348;2023-04-25T15:54:57;14.10;97.90
21582;DHT22;10952;50.836;4.348;2023-04-25T15:57:24;14.40;96.70
21582;DHT22;10952;50.836;4.348;2023-04-25T15:59:50;14.40;96.80